createdAt,value
2018-11-11T00:02:02.661Z,95891.62
2018-11-11T00:04:32.634Z,95893.35
2018-11-11T00:07:02.692Z,95894.42
2018-11-11T00:09:33.669Z,95899.78
2018-11-11T00:12:03.787Z,95903.52
2018-11-11T00:14:33.652Z,95896.24
2018-11-11T00:17:03.580Z,95885.17
2018-11-11T00:19:33.643Z,95892.00
2018-11-11T00:22:03.742Z,95886.77
2018-11-11T00:24:33.897Z,95897.14
2018-11-11T00:27:04.114Z,95894.05
2018-11-11T00:29:34.481Z,95900.59
2018-11-11T00:32:04.564Z,95900.84
2018-11-11T00:34:34.674Z,95902.39
2018-11-11T00:37:04.721Z,95904.72
2018-11-11T00:39:35.009Z,95896.15
2018-11-11T00:42:05.026Z,95900.94
2018-11-11T00:44:35.088Z,95899.33
2018-11-11T00:47:05.238Z,95906.38
2018-11-11T00:49:36.236Z,95911.19
2018-11-11T00:52:06.403Z,95905.83
2018-11-11T00:54:36.977Z,95906.95
2018-11-11T00:57:07.324Z,95907.66
2018-11-11T00:59:38.104Z,95904.67
2018-11-11T01:02:08.175Z,95908.87
2018-11-11T01:04:38.099Z,95904.55
2018-11-11T01:07:08.126Z,95903.19
2018-11-11T01:09:38.250Z,95909.12
2018-11-11T01:12:08.302Z,95900.25
2018-11-11T01:14:38.390Z,95906.19
2018-11-11T01:17:09.414Z,95913.53
2018-11-11T01:19:40.206Z,95907.72
2018-11-11T01:22:10.111Z,95915.06
2018-11-11T01:24:40.274Z,95922.27
2018-11-11T01:27:10.179Z,95917.85
2018-11-11T01:29:40.506Z,95922.00
2018-11-11T01:32:10.480Z,95921.95
2018-11-11T01:34:40.581Z,95920.73
2018-11-11T01:37:10.611Z,95917.39
2018-11-11T01:39:41.722Z,95913.63
2018-11-11T01:42:11.774Z,95911.41
2018-11-11T01:44:41.811Z,95916.64
2018-11-11T01:47:11.837Z,95914.26
2018-11-11T01:49:42.129Z,95917.19
2018-11-11T01:52:12.055Z,95918.97
2018-11-11T01:54:42.406Z,95918.97
2018-11-11T01:57:12.518Z,95925.34
2018-11-11T01:59:42.590Z,95923.03
2018-11-11T02:02:12.535Z,95922.27
2018-11-11T02:04:42.437Z,95924.69
2018-11-11T02:07:12.626Z,95931.13
2018-11-11T02:09:43.480Z,95922.02
2018-11-11T02:12:13.598Z,95916.58
2018-11-11T02:14:43.574Z,95923.61
2018-11-11T02:17:13.494Z,95922.45
2018-11-11T02:19:44.259Z,95927.78
2018-11-11T02:22:14.282Z,95922.27
2018-11-11T02:24:44.274Z,95923.88
2018-11-11T02:27:14.189Z,95928.55
2018-11-11T02:29:44.190Z,95925.19
2018-11-11T02:32:14.084Z,95931.02
2018-11-11T02:34:44.117Z,95933.92
2018-11-11T02:37:14.212Z,95937.66
2018-11-11T02:39:45.103Z,95942.43
2018-11-11T02:42:15.159Z,95939.60
2018-11-11T02:44:45.180Z,95939.45
2018-11-11T02:47:15.185Z,95942.48
2018-11-11T02:49:46.404Z,95945.17
2018-11-11T02:52:16.396Z,95948.59
2018-11-11T02:54:47.193Z,95944.34
2018-11-11T02:57:17.182Z,95945.84
2018-11-11T02:59:47.459Z,95948.47
2018-11-11T03:02:17.441Z,95950.14
2018-11-11T03:04:47.465Z,95948.60
2018-11-11T03:07:17.562Z,95944.25
2018-11-11T03:09:47.918Z,95943.15
2018-11-11T03:12:17.900Z,95947.16
2018-11-11T03:14:47.707Z,95946.80
2018-11-11T03:17:17.727Z,95953.07
2018-11-11T03:19:47.610Z,95952.89
2018-11-11T03:22:17.671Z,95953.90
2018-11-11T03:24:47.698Z,95949.52
2018-11-11T03:27:17.756Z,95953.06
2018-11-11T03:29:48.672Z,95896.91
2018-11-11T03:32:18.731Z,95954.47
2018-11-11T03:34:48.953Z,95954.64
2018-11-11T03:37:18.928Z,95954.95
2018-11-11T03:39:48.760Z,95965.22
2018-11-11T03:42:18.784Z,95960.94
2018-11-11T03:44:48.770Z,95967.11
2018-11-11T03:47:18.868Z,95963.40
2018-11-11T03:49:49.882Z,95964.20
2018-11-11T03:52:19.857Z,95960.59
2018-11-11T03:54:50.406Z,95958.59
2018-11-11T03:57:20.446Z,95954.45
2018-11-11T03:59:50.887Z,95961.78
2018-11-11T04:02:21.018Z,95957.63
2018-11-11T04:04:51.131Z,95958.57
2018-11-11T04:07:21.049Z,95949.61
2018-11-11T04:09:52.044Z,95947.88
2018-11-11T04:12:22.135Z,95946.23
2018-11-11T04:14:52.057Z,95952.63
2018-11-11T04:17:22.047Z,95958.34
2018-11-11T04:19:52.085Z,95954.20
2018-11-11T04:22:21.998Z,95952.50
2018-11-11T04:24:53.242Z,95962.72
2018-11-11T04:27:23.278Z,95966.67
2018-11-11T04:29:54.395Z,95965.08
2018-11-11T04:32:24.423Z,95969.67
2018-11-11T04:34:54.422Z,95968.34
2018-11-11T04:37:24.490Z,95975.73
2018-11-11T04:39:54.572Z,95974.56
2018-11-11T04:42:24.673Z,95971.88
2018-11-11T04:44:54.675Z,95976.05
2018-11-11T04:47:25.245Z,95978.45
2018-11-11T04:49:56.136Z,95980.09
2018-11-11T04:52:26.243Z,95982.02
2018-11-11T04:54:56.738Z,95980.44
2018-11-11T04:57:26.800Z,95980.58
2018-11-11T04:59:57.862Z,95987.89
2018-11-11T05:02:27.863Z,95990.98
2018-11-11T05:04:57.880Z,95993.59
2018-11-11T05:07:27.791Z,96005.70
2018-11-11T05:09:58.762Z,96003.37
2018-11-11T05:12:28.770Z,96004.62
2018-11-11T05:14:58.828Z,96009.95
2018-11-11T05:17:28.711Z,96007.75
2018-11-11T05:19:59.176Z,96009.14
2018-11-11T05:22:29.162Z,96014.97
2018-11-11T05:24:59.228Z,96016.08
2018-11-11T05:27:29.333Z,96018.73
2018-11-11T05:29:59.408Z,96027.31
2018-11-11T05:32:29.457Z,96025.39
2018-11-11T05:34:59.567Z,96023.80
2018-11-11T05:37:29.554Z,96021.20
2018-11-11T05:40:00.363Z,96028.67
2018-11-11T05:42:30.431Z,96027.05
2018-11-11T05:45:00.545Z,96034.50
2018-11-11T05:47:30.554Z,96033.05
2018-11-11T05:50:01.569Z,96032.09
2018-11-11T05:52:31.628Z,96035.38
2018-11-11T05:55:02.462Z,96042.01
2018-11-11T05:57:32.680Z,96035.56
2018-11-11T06:00:03.322Z,96037.50
2018-11-11T06:02:33.229Z,96043.73
2018-11-11T06:05:03.265Z,96046.63
2018-11-11T06:07:33.275Z,96044.16
2018-11-11T06:10:03.727Z,96045.91
2018-11-11T06:12:33.801Z,96052.36
2018-11-11T06:15:03.964Z,96050.99
2018-11-11T06:17:33.969Z,96061.91
2018-11-11T06:20:04.859Z,96055.24
2018-11-11T06:22:34.921Z,96054.52
2018-11-11T06:25:05.028Z,96056.58
2018-11-11T06:27:35.214Z,96055.73
2018-11-11T06:30:07.077Z,96060.95
2018-11-11T06:32:37.417Z,96056.27
2018-11-11T06:35:07.770Z,96058.80
2018-11-11T06:37:37.835Z,96061.73
2018-11-11T06:40:09.637Z,96061.85
2018-11-11T06:42:39.810Z,96069.48
2018-11-11T06:45:12.412Z,96069.94
2018-11-11T06:47:43.251Z,96075.13
2018-11-11T06:50:15.420Z,96073.05
2018-11-11T06:52:45.794Z,96066.00
2018-11-11T06:55:16.415Z,96071.79
2018-11-11T06:57:46.481Z,96076.09
2018-11-11T07:00:17.674Z,96072.48
2018-11-11T07:02:58.231Z,96068.95
2018-11-11T07:05:28.263Z,96075.66
2018-11-11T07:07:58.535Z,96074.39
2018-11-11T07:10:29.868Z,96074.10
2018-11-11T07:12:59.937Z,96065.36
2018-11-11T07:15:30.018Z,96067.74
2018-11-11T07:18:00.078Z,96071.49
2018-11-11T07:20:30.093Z,96073.45
2018-11-11T07:23:00.070Z,96074.55
2018-11-11T07:25:30.216Z,96076.13
2018-11-11T07:28:00.129Z,96078.58
2018-11-11T07:30:30.081Z,96072.30
2018-11-11T07:32:59.994Z,96069.39
2018-11-11T07:35:30.060Z,96074.02
2018-11-11T07:38:00.051Z,96067.50
2018-11-11T07:40:30.052Z,96068.22
2018-11-11T07:43:00.090Z,96075.22
2018-11-11T07:45:30.229Z,96068.76
2018-11-11T07:48:00.307Z,96064.72
2018-11-11T07:50:30.992Z,96072.28
2018-11-11T07:53:01.039Z,96068.11
2018-11-11T07:55:31.834Z,96061.59
2018-11-11T07:58:01.900Z,96054.31
2018-11-11T08:00:32.392Z,96054.58
2018-11-11T08:03:02.398Z,96055.28
2018-11-11T08:05:32.478Z,96056.22
2018-11-11T08:08:02.564Z,96049.43
2018-11-11T08:10:44.189Z,96056.50
2018-11-11T08:13:14.213Z,96058.91
2018-11-11T08:15:44.225Z,96058.08
2018-11-11T08:18:14.302Z,96054.30
2018-11-11T08:20:45.366Z,96054.85
2018-11-11T08:23:15.439Z,96054.89
2018-11-11T08:25:45.453Z,96051.83
2018-11-11T08:28:15.394Z,96057.26
2018-11-11T08:30:45.619Z,96059.17
2018-11-11T08:33:15.778Z,96051.12
2018-11-11T08:35:45.711Z,96048.44
2018-11-11T08:38:15.653Z,96052.39
2018-11-11T08:40:46.322Z,96049.43
2018-11-11T08:43:16.445Z,96053.23
2018-11-11T08:45:46.470Z,96052.77
2018-11-11T08:48:16.553Z,96044.45
2018-11-11T08:50:46.738Z,96042.07
2018-11-11T08:53:18.119Z,96047.27
2018-11-11T08:55:48.369Z,96039.52
2018-11-11T08:58:18.431Z,96042.10
2018-11-11T09:00:49.456Z,96046.99
2018-11-11T09:03:19.553Z,96046.82
2018-11-11T09:05:49.623Z,96050.95
2018-11-11T09:08:19.674Z,96041.51
2018-11-11T09:10:50.212Z,96040.45
2018-11-11T09:13:20.090Z,96037.66
2018-11-11T09:15:50.104Z,96036.88
2018-11-11T09:18:20.179Z,96042.07
2018-11-11T09:20:51.368Z,96034.16
2018-11-11T09:23:21.478Z,96030.25
2018-11-11T09:25:51.640Z,96030.44
2018-11-11T09:28:21.695Z,96022.91
2018-11-11T09:30:52.400Z,96025.21
2018-11-11T09:33:22.567Z,96019.16
2018-11-11T09:35:52.677Z,96015.03
2018-11-11T09:38:22.827Z,96010.28
2018-11-11T09:40:54.030Z,96012.52
2018-11-11T09:43:24.127Z,96007.09
2018-11-11T09:45:54.220Z,96001.56
2018-11-11T09:48:24.307Z,96009.08
2018-11-11T09:50:54.944Z,96009.12
2018-11-11T09:53:25.115Z,96006.56
2018-11-11T09:55:55.744Z,96002.26
2018-11-11T09:58:25.822Z,95995.60
2018-11-11T10:00:56.110Z,95996.11
2018-11-11T10:03:30.675Z,95987.38
2018-11-11T10:06:06.274Z,95982.24
2018-11-11T10:08:42.511Z,95978.99
2018-11-11T10:11:19.744Z,95977.31
2018-11-11T10:15:55.994Z,95980.52
2018-11-11T10:18:31.315Z,95977.37
2018-11-11T10:21:11.391Z,95979.34
2018-11-11T10:23:50.956Z,95969.30
2018-11-11T10:26:31.107Z,95971.77
2018-11-11T10:29:15.050Z,95969.15
2018-11-11T10:31:49.383Z,95970.36
2018-11-11T10:34:25.271Z,95960.46
2018-11-11T10:37:07.967Z,95960.27
2018-11-11T10:39:42.219Z,95952.25
2018-11-11T10:43:19.829Z,95948.76
2018-11-11T10:45:55.990Z,95950.23
2018-11-11T10:48:29.066Z,95741.36
2018-11-11T10:51:01.138Z,95944.09
2018-11-11T10:53:31.047Z,95938.82
2018-11-11T10:56:02.391Z,95940.80
2018-11-11T10:58:32.514Z,95937.86
2018-11-11T11:01:07.450Z,95932.62
2018-11-11T11:03:38.619Z,95930.58
2018-11-11T11:06:08.948Z,95931.31
2018-11-11T11:08:43.474Z,95925.87
2018-11-11T11:11:13.649Z,95924.78
2018-11-11T11:13:43.741Z,95925.07
2018-11-11T11:16:14.871Z,95920.71
2018-11-11T11:18:44.988Z,95917.16
2018-11-11T11:21:15.176Z,95923.52
2018-11-11T11:23:45.424Z,95917.04
2018-11-11T11:26:17.221Z,95918.97
2018-11-11T11:28:47.520Z,95911.34
2018-11-11T11:31:17.857Z,95916.95
2018-11-11T11:33:48.562Z,95918.44
2018-11-11T11:36:18.776Z,95917.47
2018-11-11T11:38:49.066Z,95908.58
2018-11-11T11:41:19.515Z,95905.58
2018-11-11T11:43:50.337Z,95902.75
2018-11-11T11:46:20.929Z,95902.09
2018-11-11T11:48:50.892Z,95897.12
2018-11-11T11:51:20.963Z,95906.58
2018-11-11T11:53:51.113Z,95906.38
2018-11-11T11:56:22.286Z,95907.94
2018-11-11T11:58:52.381Z,95904.71
2018-11-11T12:01:22.412Z,95897.84
2018-11-11T12:03:52.399Z,95895.84
2018-11-11T12:06:23.382Z,95902.12
2018-11-11T12:08:53.590Z,95893.61
2018-11-11T12:11:23.641Z,95886.50
2018-11-11T12:13:53.590Z,95892.87
2018-11-11T12:16:24.081Z,95893.37
2018-11-11T12:18:54.167Z,95894.42
2018-11-11T12:21:24.277Z,95882.08
2018-11-11T12:23:54.335Z,95880.38
2018-11-11T12:26:25.578Z,95894.05
2018-11-11T12:28:55.753Z,95889.44
2018-11-11T12:31:25.881Z,95894.30
2018-11-11T12:33:56.024Z,95889.70
2018-11-11T12:36:26.794Z,95891.84
2018-11-11T12:38:57.025Z,95895.98
2018-11-11T12:41:27.167Z,95894.92
2018-11-11T12:43:57.237Z,95897.23
2018-11-11T12:46:27.642Z,95892.69
2018-11-11T12:48:57.713Z,95897.04
2018-11-11T12:51:27.846Z,95894.77
2018-11-11T12:53:57.890Z,95903.86
2018-11-11T12:56:29.191Z,95898.22
2018-11-11T12:58:59.400Z,95895.42
2018-11-11T13:01:29.464Z,95893.77
2018-11-11T13:03:59.391Z,95899.86
2018-11-11T13:06:30.361Z,95897.94
2018-11-11T13:09:00.438Z,95892.47
2018-11-11T13:11:30.519Z,95888.94
2018-11-11T13:14:00.613Z,95890.23
2018-11-11T13:16:31.082Z,95887.73
2018-11-11T13:19:01.231Z,95893.42
2018-11-11T13:21:31.302Z,95887.03
2018-11-11T13:24:01.476Z,95890.27
2018-11-11T13:26:32.213Z,95892.98
2018-11-11T13:29:02.217Z,95888.84
2018-11-11T13:31:32.299Z,95888.22
2018-11-11T13:34:02.368Z,95884.75
2018-11-11T13:36:33.266Z,95887.59
2018-11-11T13:39:03.497Z,95889.77
2018-11-11T13:41:33.641Z,95901.30
2018-11-11T13:44:03.763Z,95900.42
2018-11-11T13:46:34.740Z,95901.73
2018-11-11T13:49:04.732Z,95902.66
2018-11-11T13:51:34.975Z,95904.10
2018-11-11T13:54:05.242Z,95913.13
2018-11-11T13:56:36.684Z,95917.39
2018-11-11T13:59:07.094Z,95919.84
2018-11-11T14:01:37.268Z,95926.70
2018-11-11T14:04:07.371Z,95929.91
2018-11-11T14:06:38.562Z,95928.28
2018-11-11T14:09:13.469Z,95931.82
2018-11-11T14:11:43.534Z,95931.21
2018-11-11T14:14:13.724Z,95932.02
2018-11-11T14:16:43.814Z,95938.94
2018-11-11T14:19:14.065Z,95934.16
2018-11-11T14:21:43.913Z,95944.20
2018-11-11T14:24:13.880Z,95938.05
2018-11-11T14:26:44.450Z,95934.84
2018-11-11T14:29:14.248Z,95939.00
2018-11-11T14:31:44.206Z,95943.34
2018-11-11T14:34:14.143Z,95937.98
2018-11-11T14:36:45.070Z,95938.45
2018-11-11T14:39:15.980Z,95941.77
2018-11-11T14:41:45.944Z,95940.61
2018-11-11T14:44:15.948Z,95941.99
2018-11-11T14:46:46.912Z,95942.61
2018-11-11T14:49:16.882Z,95946.22
2018-11-11T14:51:46.977Z,95936.88
2018-11-11T14:54:17.053Z,95952.88
2018-11-11T14:56:48.473Z,95945.89
2018-11-11T14:59:18.441Z,95951.15
2018-11-11T15:01:48.555Z,95951.80
2018-11-11T15:04:18.675Z,95953.59
2018-11-11T15:06:49.711Z,95956.50
2018-11-11T15:09:19.785Z,95965.25
2018-11-11T15:11:49.862Z,95966.48
2018-11-11T15:14:20.028Z,95967.17
2018-11-11T15:16:51.112Z,95967.20
2018-11-11T15:19:21.370Z,95972.23
2018-11-11T15:21:51.304Z,95984.40
2018-11-11T15:24:21.370Z,95988.17
2018-11-11T15:26:52.285Z,95985.17
2018-11-11T15:29:22.337Z,95987.94
2018-11-11T15:31:52.399Z,95993.05
2018-11-11T15:34:22.518Z,95989.16
2018-11-11T15:36:52.962Z,95995.66
2018-11-11T15:39:22.938Z,95995.72
2018-11-11T15:41:52.993Z,95994.45
2018-11-11T15:44:23.033Z,95996.75
2018-11-11T15:46:53.742Z,96002.80
2018-11-11T15:49:23.844Z,95994.29
2018-11-11T15:51:56.275Z,96001.52
2018-11-11T15:54:27.127Z,95998.80
2018-11-11T15:56:57.932Z,95997.69
2018-11-11T15:59:28.032Z,96000.20
2018-11-11T16:01:58.029Z,96002.63
2018-11-11T16:04:27.935Z,96007.39
2018-11-11T16:06:58.697Z,96011.05
2018-11-11T16:09:28.644Z,96012.25
2018-11-11T16:11:58.715Z,96012.23
2018-11-11T16:14:28.750Z,96021.95
2018-11-11T16:16:59.246Z,96018.94
2018-11-11T16:19:29.358Z,96019.28
2018-11-11T16:21:59.435Z,96022.37
2018-11-11T16:24:29.468Z,96020.03
2018-11-11T16:27:00.245Z,96023.89
2018-11-11T16:29:30.374Z,96029.41
2018-11-11T16:32:00.539Z,96033.37
2018-11-11T16:34:30.476Z,96031.59
2018-11-11T16:37:01.660Z,96032.96
2018-11-11T16:39:31.698Z,96039.88
2018-11-11T16:42:01.845Z,96043.67
2018-11-11T16:44:31.895Z,96039.89
2018-11-11T16:47:03.008Z,96048.52
2018-11-11T16:49:32.961Z,96045.91
2018-11-11T16:52:03.035Z,96050.44
2018-11-11T16:54:33.011Z,96054.01
2018-11-11T16:57:04.681Z,96058.92
2018-11-11T16:59:34.842Z,96056.58
2018-11-11T17:02:04.938Z,96062.77
2018-11-11T17:04:35.020Z,96065.69
2018-11-11T17:07:05.476Z,96070.20
2018-11-11T17:09:35.539Z,96065.52
2018-11-11T17:12:05.656Z,96066.06
2018-11-11T17:14:35.725Z,96067.13
2018-11-11T17:17:06.890Z,96076.73
2018-11-11T17:19:36.835Z,96082.37
2018-11-11T17:22:07.250Z,96082.96
2018-11-11T17:24:37.090Z,96088.34
2018-11-11T17:27:08.099Z,96082.24
2018-11-11T17:29:38.264Z,96085.41
2018-11-11T17:32:08.370Z,96083.93
2018-11-11T17:34:42.686Z,96093.92
2018-11-11T17:37:13.778Z,96092.87
2018-11-11T17:39:43.783Z,96094.74
2018-11-11T17:42:13.813Z,96106.40
2018-11-11T17:44:43.903Z,96105.92
2018-11-11T17:47:14.375Z,96114.67
2018-11-11T17:49:44.543Z,96110.19
2018-11-11T17:52:14.655Z,96113.91
2018-11-11T17:54:44.783Z,96113.36
2018-11-11T17:57:15.503Z,96125.85
2018-11-11T17:59:45.590Z,96126.25
2018-11-11T18:02:15.714Z,96125.84
2018-11-11T18:04:45.778Z,96126.42
2018-11-11T18:07:16.266Z,96128.03
2018-11-11T18:09:46.443Z,96128.41
2018-11-11T18:12:16.596Z,96134.48
2018-11-11T18:14:46.615Z,96134.78
2018-11-11T18:17:17.968Z,96128.28
2018-11-11T18:19:48.006Z,96129.67
2018-11-11T18:22:18.038Z,96132.33
2018-11-11T18:24:48.010Z,96132.31
2018-11-11T18:27:18.649Z,96138.45
2018-11-11T18:29:48.789Z,96148.72
2018-11-11T18:32:18.814Z,96141.36
2018-11-11T18:34:48.957Z,96154.40
2018-11-11T18:37:20.039Z,96157.77
2018-11-11T18:39:50.195Z,96162.24
2018-11-11T18:42:20.221Z,96161.97
2018-11-11T18:44:50.221Z,96168.08
2018-11-11T18:47:21.266Z,96176.55
2018-11-11T18:49:51.265Z,96176.30
2018-11-11T18:52:21.290Z,96178.25
2018-11-11T18:54:51.384Z,96180.52
2018-11-11T18:57:22.782Z,96186.15
2018-11-11T18:59:52.830Z,96185.86
2018-11-11T19:02:22.867Z,96195.33
2018-11-11T19:04:52.993Z,96195.09
2018-11-11T19:07:23.600Z,96197.73
2018-11-11T19:09:53.811Z,96204.00
2018-11-11T19:12:23.886Z,96205.64
2018-11-11T19:14:53.981Z,96220.83
2018-11-11T19:17:24.771Z,96206.02
2018-11-11T19:19:54.828Z,96208.13
2018-11-11T19:22:24.858Z,96213.10
2018-11-11T19:24:55.125Z,96211.28
2018-11-11T19:27:25.817Z,96217.44
2018-11-11T19:29:55.911Z,96215.43
2018-11-11T19:32:25.983Z,96221.55
2018-11-11T19:34:56.083Z,96227.28
2018-11-11T19:37:27.064Z,96218.95
2018-11-11T19:39:57.213Z,96214.44
2018-11-11T19:42:27.306Z,96225.74
2018-11-11T19:44:57.428Z,96231.65
2018-11-11T19:47:27.460Z,96229.23
2018-11-11T19:49:57.579Z,96227.61
2018-11-11T19:52:27.759Z,96232.92
2018-11-11T19:54:57.818Z,96236.13
2018-11-11T19:57:28.692Z,96236.09
2018-11-11T19:59:58.853Z,96233.41
2018-11-11T20:02:28.968Z,96234.80
2018-11-11T20:04:59.067Z,96239.03
2018-11-11T20:07:29.372Z,96242.11
2018-11-11T20:09:59.432Z,96245.20
2018-11-11T20:12:29.556Z,96244.17
2018-11-11T20:14:59.772Z,96252.13
2018-11-11T20:17:30.752Z,96249.83
2018-11-11T20:20:00.885Z,96248.27
2018-11-11T20:22:30.912Z,96251.87
2018-11-11T20:25:00.959Z,96254.73
2018-11-11T20:27:31.068Z,96250.20
2018-11-11T20:30:01.280Z,96253.91
2018-11-11T20:32:31.227Z,96256.39
2018-11-11T20:35:01.313Z,96257.58
2018-11-11T20:37:32.101Z,96254.62
2018-11-11T20:40:02.243Z,96247.16
2018-11-11T20:42:32.231Z,96251.63
2018-11-11T20:45:02.350Z,96254.05
2018-11-11T20:47:32.987Z,96261.42
2018-11-11T20:50:03.055Z,96266.79
2018-11-11T20:52:33.083Z,96274.09
2018-11-11T20:55:03.188Z,96279.25
2018-11-11T20:57:33.671Z,96281.95
2018-11-11T21:00:03.834Z,96279.55
2018-11-11T21:02:33.851Z,96290.17
2018-11-11T21:05:03.952Z,96286.78
2018-11-11T21:07:34.829Z,96282.17
2018-11-11T21:10:04.903Z,96285.16
2018-11-11T21:12:34.942Z,96289.00
2018-11-11T21:15:05.169Z,96291.43
2018-11-11T21:17:35.307Z,96291.00
2018-11-11T21:20:06.244Z,96291.84
2018-11-11T21:22:36.291Z,96285.08
2018-11-11T21:25:07.171Z,96296.86
2018-11-11T21:27:39.226Z,96291.38
2018-11-11T21:30:16.389Z,96286.08
2018-11-11T21:32:46.877Z,96284.20
2018-11-11T21:35:17.040Z,96289.69
2018-11-11T21:37:48.011Z,96288.91
2018-11-11T21:40:19.552Z,96296.13
2018-11-11T21:42:50.407Z,96296.83
2018-11-11T21:45:21.658Z,96296.83
2018-11-11T21:47:52.506Z,96298.89
2018-11-11T21:50:23.878Z,96295.47
2018-11-11T21:53:01.322Z,96301.91
2018-11-11T21:55:31.462Z,96299.80
2018-11-11T21:58:02.115Z,96312.52
2018-11-11T22:00:32.099Z,96248.59
2018-11-11T22:03:02.355Z,96305.09
2018-11-11T22:05:32.383Z,96305.19
2018-11-11T22:08:02.328Z,96304.73
2018-11-11T22:10:32.410Z,96313.34
2018-11-11T22:13:02.546Z,96309.89
2018-11-11T22:15:32.464Z,96316.47
2018-11-11T22:18:02.505Z,96313.66
2018-11-11T22:20:32.526Z,96314.21
2018-11-11T22:23:02.537Z,96314.42
2018-11-11T22:25:32.598Z,96316.25
2018-11-11T22:28:02.728Z,96315.02
2018-11-11T22:30:32.761Z,96319.84
2018-11-11T22:33:02.910Z,96321.98
2018-11-11T22:35:33.008Z,96317.14
2018-11-11T22:38:03.557Z,96320.52
2018-11-11T22:40:33.626Z,96315.91
2018-11-11T22:43:03.632Z,96319.52
2018-11-11T22:45:33.720Z,96323.30
2018-11-11T22:48:04.714Z,96323.61
2018-11-11T22:50:34.603Z,96329.77
2018-11-11T22:53:04.629Z,96327.73
2018-11-11T22:55:34.685Z,96330.48
2018-11-11T22:58:06.834Z,96329.56
2018-11-11T23:00:36.983Z,96332.03
2018-11-11T23:03:07.264Z,96338.05
2018-11-11T23:05:37.345Z,96332.92
2018-11-11T23:08:07.961Z,96333.78
2018-11-11T23:10:37.979Z,96331.33
2018-11-11T23:13:08.384Z,96333.89
2018-11-11T23:15:38.548Z,96333.31
2018-11-11T23:18:08.524Z,96333.86
2018-11-11T23:20:38.665Z,96324.41
2018-11-11T23:23:08.771Z,96324.98
2018-11-11T23:25:38.724Z,96327.02
2018-11-11T23:28:09.513Z,96324.41
2018-11-11T23:30:39.592Z,96324.53
2018-11-11T23:33:09.603Z,96320.77
2018-11-11T23:35:39.541Z,96333.17
2018-11-11T23:38:09.914Z,96333.74
2018-11-11T23:40:39.937Z,96335.33
2018-11-11T23:43:09.919Z,96337.02
2018-11-11T23:45:39.913Z,96339.45
2018-11-11T23:48:10.467Z,96332.27
2018-11-11T23:50:40.422Z,96336.01
2018-11-11T23:53:10.556Z,96343.22
2018-11-11T23:55:40.523Z,96347.41
2018-11-11T23:58:11.755Z,96351.00
